Time;durP1;ratioP1;P1;durP2;ratioP2;P2;SDS_P1;SDS_P2;PMS_P1;PMS_P2;Temp;Humidity;BMP_temperature;BMP_pressure;BME280_temperature;BME280_humidity;BME280_pressure;Samples;Min_cycle;Max_cycle;Signal;HPM_P1;HPM_P2
2023/01/10 00:02:06;;;;;;;9.55;2.80;;;;;;;3.71;100.00;101137.88;5042362;28;20346;-72
2023/01/10 00:04:31;;;;;;;21.42;3.97;;;;;;;3.72;100.00;101158.44;5045318;28;20113;-72
2023/01/10 00:06:56;;;;;;;14.35;3.25;;;;;;;3.70;100.00;101155.84;5028722;28;20477;-72
2023/01/10 00:09:22;;;;;;;14.13;3.25;;;;;;;3.74;100.00;101164.66;5028947;28;20401;-71
2023/01/10 00:14:34;;;;;;;16.50;3.83;;;;;;;3.81;100.00;101166.16;5039143;28;20215;-72
2023/01/10 00:17:01;;;;;;;13.00;3.58;;;;;;;3.79;100.00;101176.13;5036703;28;20033;-72
2023/01/10 00:19:27;;;;;;;16.30;4.00;;;;;;;3.75;100.00;101169.97;5031098;28;20037;-72
2023/01/10 00:21:53;;;;;;;11.48;4.57;;;;;;;3.70;100.00;101171.09;5022093;28;20048;-72
2023/01/10 00:24:18;;;;;;;11.85;3.45;;;;;;;3.66;100.00;101186.47;5012219;28;20041;-71
2023/01/10 00:26:49;;;;;;;11.30;4.13;;;;;;;3.62;100.00;101183.97;5029630;28;20063;-71
2023/01/10 00:29:16;;;;;;;22.83;4.22;;;;;;;3.58;100.00;101194.81;5027931;28;20114;-74
2023/01/10 00:31:41;;;;;;;14.30;4.32;;;;;;;3.56;100.00;101190.47;5034855;28;20481;-72
2023/01/10 00:34:07;;;;;;;9.65;3.55;;;;;;;3.58;100.00;101207.41;5026785;28;20099;-72
2023/01/10 00:36:32;;;;;;;11.48;3.08;;;;;;;3.57;100.00;101219.09;5030082;28;20030;-72
2023/01/10 00:38:57;;;;;;;15.70;3.53;;;;;;;3.53;100.00;101214.78;5028443;28;20405;-72
2023/01/10 00:44:07;;;;;;;10.50;3.65;;;;;;;3.42;100.00;101220.56;5029076;28;20033;-74
2023/01/10 00:46:33;;;;;;;15.30;3.55;;;;;;;3.39;100.00;101225.16;5035459;28;20040;-72
2023/01/10 00:48:59;;;;;;;12.60;3.75;;;;;;;3.33;100.00;101221.78;5027894;28;20041;-75
2023/01/10 00:51:24;;;;;;;10.65;4.20;;;;;;;3.28;100.00;101215.69;5029880;28;20128;-71
2023/01/10 00:53:49;;;;;;;12.40;3.97;;;;;;;3.27;100.00;101221.13;5027833;28;20061;-72
2023/01/10 00:56:15;;;;;;;11.52;3.35;;;;;;;3.23;100.00;101224.84;5029465;28;20048;-72
2023/01/10 00:58:43;;;;;;;15.25;3.67;;;;;;;3.26;100.00;101228.31;5027359;28;20120;-72
2023/01/10 01:01:09;;;;;;;16.15;3.53;;;;;;;3.30;100.00;101226.38;5032593;28;20037;-72
2023/01/10 01:03:34;;;;;;;15.25;3.17;;;;;;;3.35;100.00;101226.22;5032446;28;20037;-74
2023/01/10 01:06:04;;;;;;;8.63;3.58;;;;;;;3.40;100.00;101233.16;5030238;28;20034;-75
2023/01/10 01:08:30;;;;;;;11.93;3.25;;;;;;;3.42;100.00;101235.81;5027883;28;20041;-72
2023/01/10 01:10:55;;;;;;;11.23;3.75;;;;;;;3.41;100.00;101236.75;5027917;28;20558;-72
2023/01/10 01:13:21;;;;;;;6.82;3.33;;;;;;;3.41;100.00;101250.22;5028923;28;20021;-72
2023/01/10 01:15:47;;;;;;;15.57;3.50;;;;;;;3.43;100.00;101251.88;5028397;28;20528;-71
2023/01/10 01:18:16;;;;;;;10.35;3.78;;;;;;;3.44;100.00;101260.84;5029250;28;20033;-74
2023/01/10 01:20:42;;;;;;;18.75;4.35;;;;;;;3.49;100.00;101258.84;5040666;28;20552;-72
2023/01/10 01:23:07;;;;;;;10.10;3.08;;;;;;;3.51;100.00;101255.19;5028981;28;20464;-72
2023/01/10 01:25:33;;;;;;;10.90;3.15;;;;;;;3.54;100.00;101267.63;5029398;28;20069;-72
2023/01/10 01:27:58;;;;;;;13.15;3.25;;;;;;;3.54;100.00;101262.25;5028901;28;20045;-72
2023/01/10 01:30:24;;;;;;;18.13;3.90;;;;;;;3.50;100.00;101272.25;5028382;28;20048;-72
2023/01/10 01:32:50;;;;;;;14.00;3.05;;;;;;;3.49;100.00;101265.09;5027318;28;20103;-72
2023/01/10 01:35:16;;;;;;;10.20;3.05;;;;;;;3.49;100.00;101280.38;5028398;28;20095;-72
2023/01/10 01:37:42;;;;;;;15.63;3.95;;;;;;;3.45;100.00;101279.63;5030304;28;20032;-72
2023/01/10 01:40:18;;;;;;;12.07;3.50;;;;;;;3.48;100.00;101290.25;5048158;28;20072;-73
2023/01/10 01:42:45;;;;;;;12.68;4.40;;;;;;;3.51;100.00;101295.53;5044283;28;20033;-72
2023/01/10 01:45:13;;;;;;;20.23;3.70;;;;;;;3.59;100.00;101292.56;5028293;28;20037;-72
2023/01/10 01:47:51;;;;;;;15.38;4.22;;;;;;;3.66;100.00;101302.16;5028396;28;20532;-71
2023/01/10 01:50:21;;;;;;;18.02;4.60;;;;;;;3.70;100.00;101289.47;5028147;28;20049;-72
2023/01/10 01:52:50;;;;;;;18.58;5.18;;;;;;;3.76;100.00;101303.56;5028608;28;20108;-72
2023/01/10 01:55:15;;;;;;;22.88;5.53;;;;;;;3.79;100.00;101300.78;5027365;28;20373;-73
2023/01/10 01:57:41;;;;;;;15.73;3.90;;;;;;;3.81;100.00;101303.41;5026645;28;20041;-73
2023/01/10 02:00:09;;;;;;;14.35;4.55;;;;;;;3.83;100.00;101310.50;5028024;28;20057;-74
2023/01/10 02:02:50;;;;;;;14.77;4.47;;;;;;;3.86;100.00;101306.81;5028068;28;20033;-72
2023/01/10 02:05:17;;;;;;;12.48;5.10;;;;;;;3.86;100.00;101316.69;5027884;28;20095;-72
2023/01/10 02:07:46;;;;;;;19.63;5.38;;;;;;;3.86;100.00;101308.63;5027662;28;20033;-72
2023/01/10 02:10:51;;;;;;;21.85;5.68;;;;;;;3.88;100.00;101313.03;5028154;28;20037;-72
2023/01/10 02:13:19;;;;;;;14.27;5.53;;;;;;;3.91;100.00;101322.78;5027697;28;20053;-72
2023/01/10 02:15:45;;;;;;;10.55;5.00;;;;;;;3.89;100.00;101317.47;5027672;28;20188;-73
2023/01/10 02:18:11;;;;;;;23.20;6.95;;;;;;;3.93;100.00;101324.50;5026758;28;20038;-72
2023/01/10 02:20:50;;;;;;;16.55;6.30;;;;;;;3.98;100.00;101327.88;5026207;28;20033;-72
2023/01/10 02:23:36;;;;;;;17.65;4.55;;;;;;;4.00;100.00;101330.50;5026758;28;20068;-71
2023/01/10 02:26:41;;;;;;;15.13;5.13;;;;;;;4.02;100.00;101334.03;5027074;28;20501;-72
2023/01/10 02:29:28;;;;;;;14.50;5.78;;;;;;;4.02;100.00;101328.66;5009067;28;20048;-72
2023/01/10 02:32:07;;;;;;;21.38;5.55;;;;;;;4.02;100.00;101328.66;5027655;28;20077;-71
2023/01/10 02:34:46;;;;;;;19.65;5.43;;;;;;;4.01;100.00;101327.78;5025734;28;20060;-72
2023/01/10 02:37:23;;;;;;;10.85;4.50;;;;;;;4.00;100.00;101328.69;5027444;28;20037;-72
2023/01/10 02:39:55;;;;;;;23.60;4.93;;;;;;;4.00;100.00;101326.00;5046950;28;20187;-72
2023/01/10 02:42:38;;;;;;;18.55;5.85;;;;;;;3.94;100.00;101311.91;5038868;28;20057;-72
2023/01/10 02:45:07;;;;;;;;;;;;;;;3.99;100.00;101328.75;5027884;28;20037;-72
2023/01/10 02:47:40;;;;;;;16.95;4.65;;;;;;;3.96;100.00;101318.97;5026707;28;20411;-73
2023/01/10 02:50:48;;;;;;;15.25;4.43;;;;;;;3.93;100.00;101335.25;5033158;28;20037;-75
2023/01/10 02:53:16;;;;;;;19.60;4.55;;;;;;;3.86;100.00;101336.41;5040122;28;20076;-72
2023/01/10 02:56:03;;;;;;;16.63;4.57;;;;;;;3.81;100.00;101335.69;5027589;28;20052;-72
2023/01/10 02:58:56;;;;;;;16.40;3.88;;;;;;;3.76;100.00;101341.25;5026151;28;20080;-72
2023/01/10 03:01:33;;;;;;;16.33;3.83;;;;;;;3.71;100.00;101340.53;5025704;28;20107;-72
2023/01/10 03:04:16;;;;;;;16.05;4.03;;;;;;;3.66;100.00;101349.72;5025584;28;20560;-71
2023/01/10 03:06:51;;;;;;;12.15;3.85;;;;;;;3.62;100.00;101345.38;5026993;28;20037;-71
2023/01/10 03:09:31;;;;;;;23.70;4.10;;;;;;;3.54;100.00;101345.63;5042104;28;20036;-71
2023/01/10 03:12:08;;;;;;;13.15;4.47;;;;;;;3.52;100.00;101355.59;5047645;28;20037;-72
2023/01/10 03:14:36;;;;;;;7.55;3.35;;;;;;;3.48;100.00;101362.00;5046635;28;20534;-72
2023/01/10 03:17:07;;;;;;;14.70;3.50;;;;;;;3.48;100.00;101364.69;5034836;28;20479;-72
2023/01/10 03:19:40;;;;;;;17.33;4.03;;;;;;;3.47;100.00;101374.56;5028890;28;20047;-75
2023/01/10 03:22:09;;;;;;;13.40;3.38;;;;;;;3.45;100.00;101384.53;5036142;28;20120;-73
2023/01/10 03:24:57;;;;;;;13.65;2.67;;;;;;;3.45;100.00;101380.91;5009481;28;20061;-72
2023/01/10 03:27:37;;;;;;;16.85;3.63;;;;;;;3.54;100.00;101389.59;5027131;28;20389;-72
2023/01/10 03:30:12;;;;;;;12.82;3.60;;;;;;;3.60;100.00;101395.69;5026186;28;20076;-73
2023/01/10 03:32:38;;;;;;;19.98;3.90;;;;;;;3.63;100.00;101390.16;5037698;28;20060;-73
2023/01/10 03:35:05;;;;;;;19.67;4.13;;;;;;;3.66;100.00;101390.94;5038794;28;20452;-72
2023/01/10 03:37:41;;;;;;;14.32;3.95;;;;;;;3.68;100.00;101405.22;5027318;28;20140;-72
2023/01/10 03:40:06;;;;;;;19.95;3.63;;;;;;;3.72;100.00;101397.91;5046691;28;20578;-71
2023/01/10 03:45:42;;;;;;;13.60;3.30;;;;;;;3.78;100.00;101406.69;5029279;28;20037;-72
2023/01/10 03:48:10;;;;;;;19.73;4.15;;;;;;;3.75;100.00;101409.47;5026036;28;20045;-72
2023/01/10 03:50:37;;;;;;;15.60;3.70;;;;;;;3.76;100.00;101413.91;5025794;28;20029;-72
2023/01/10 03:53:04;;;;;;;20.40;4.22;;;;;;;3.76;100.00;101415.72;5027460;28;20080;-72
2023/01/10 03:55:30;;;;;;;12.13;3.35;;;;;;;3.80;100.00;101417.38;5026564;28;20032;-72
2023/01/10 03:57:56;;;;;;;11.65;3.35;;;;;;;3.84;100.00;101427.09;5025277;28;20088;-72
2023/01/10 04:00:23;;;;;;;20.30;3.50;;;;;;;3.87;100.00;101423.41;5009087;28;20095;-73
2023/01/10 04:02:48;;;;;;;12.10;3.75;;;;;;;3.87;100.00;101434.16;5025171;28;20120;-72
2023/01/10 04:05:14;;;;;;;24.40;3.38;;;;;;;3.84;100.00;101437.88;5034327;28;20491;-72
2023/01/10 04:07:39;;;;;;;20.10;4.32;;;;;;;3.82;100.00;101440.63;5043472;28;20041;-72
2023/01/10 04:10:07;;;;;;;13.00;3.67;;;;;;;3.81;100.00;101448.72;5027335;28;20469;-72
2023/01/10 04:12:33;;;;;;;10.20;2.80;;;;;;;3.77;100.00;101450.63;5009186;28;20068;-72
2023/01/10 04:14:58;;;;;;;13.35;3.47;;;;;;;3.75;100.00;101452.53;5026485;28;20493;-72
2023/01/10 04:17:23;;;;;;;18.27;3.15;;;;;;;3.69;100.00;101457.25;5026303;28;20409;-72
2023/01/10 04:19:49;;;;;;;15.88;3.20;;;;;;;3.65;100.00;101453.78;5030991;28;20108;-72
2023/01/10 04:22:14;;;;;;;11.45;3.05;;;;;;;3.58;100.00;101450.38;5035180;28;20045;-72
2023/01/10 04:24:40;;;;;;;12.88;4.55;;;;;;;3.56;100.00;101471.09;5044102;28;20040;-72
2023/01/10 04:27:06;;;;;;;15.00;2.83;;;;;;;3.55;100.00;101471.16;5046212;28;20452;-75
2023/01/10 04:29:31;;;;;;;15.98;3.03;;;;;;;3.52;100.00;101468.56;5039816;28;20556;-72
2023/01/10 04:31:57;;;;;;;16.55;2.90;;;;;;;3.51;100.00;101466.81;5026470;28;20033;-72
2023/01/10 04:34:22;;;;;;;14.05;3.35;;;;;;;3.48;100.00;101464.22;5026105;28;20037;-71
2023/01/10 04:36:48;;;;;;;16.13;3.80;;;;;;;3.45;100.00;101457.13;5026266;28;20034;-72
2023/01/10 04:39:14;;;;;;;14.38;3.05;;;;;;;3.44;100.00;101451.78;5039925;28;20040;-71
2023/01/10 04:41:40;;;;;;;21.83;3.40;;;;;;;3.41;100.00;101458.16;5025290;28;20049;-72
2023/01/10 04:44:05;;;;;;;16.85;3.20;;;;;;;3.40;100.00;101456.38;5017389;28;20093;-75
2023/01/10 04:46:31;;;;;;;12.00;3.28;;;;;;;3.36;100.00;101454.75;5016964;28;20041;-72
2023/01/10 04:48:57;;;;;;;26.52;3.25;;;;;;;3.38;100.00;101454.69;5029790;28;20475;-71
2023/01/10 04:51:24;;;;;;;12.75;3.15;;;;;;;3.35;100.00;101463.72;5011195;28;20030;-71
2023/01/10 04:53:49;;;;;;;17.15;3.35;;;;;;;3.36;100.00;101480.72;4992546;28;20041;-72
2023/01/10 04:56:18;;;;;;;15.43;3.65;;;;;;;3.37;100.00;101482.53;5010072;28;20048;-72
2023/01/10 04:58:44;;;;;;;21.38;4.30;;;;;;;3.34;100.00;101480.78;5008008;28;20030;-71
2023/01/10 05:01:19;;;;;;;19.35;3.83;;;;;;;3.37;100.00;101474.44;5009198;28;20504;-72
2023/01/10 05:03:47;;;;;;;18.55;3.67;;;;;;;3.32;100.00;101451.28;5008646;28;20513;-71
2023/01/10 05:06:12;;;;;;;13.48;3.25;;;;;;;3.37;100.00;101458.31;5008053;28;20056;-72
2023/01/10 05:08:38;;;;;;;22.92;3.72;;;;;;;3.36;100.00;101464.59;5008613;28;20038;-74
2023/01/10 05:11:03;;;;;;;13.10;2.60;;;;;;;3.38;100.00;101476.19;5010534;28;20029;-72
2023/01/10 05:13:28;;;;;;;24.58;4.07;;;;;;;3.31;100.00;101475.50;5009402;28;20519;-72
2023/01/10 05:15:56;;;;;;;15.98;3.97;;;;;;;3.32;100.00;101488.94;5008864;28;20802;-73
2023/01/10 05:18:26;;;;;;;12.85;2.80;;;;;;;3.31;100.00;101497.94;5028191;28;20055;-72
2023/01/10 05:20:51;;;;;;;19.52;3.83;;;;;;;3.28;100.00;101516.84;5014704;28;20095;-72
2023/01/10 05:23:17;;;;;;;19.58;3.20;;;;;;;3.32;100.00;101513.13;5008258;28;20444;-71
2023/01/10 05:25:42;;;;;;;12.02;2.90;;;;;;;3.38;100.00;101520.13;4991687;28;20045;-72
2023/01/10 05:28:08;;;;;;;15.32;4.68;;;;;;;3.44;100.00;101519.03;5007844;28;20520;-75
2023/01/10 05:30:33;;;;;;;23.08;3.95;;;;;;;3.51;100.00;101523.28;5009759;28;20034;-73
2023/01/10 05:32:59;;;;;;;25.23;3.25;;;;;;;3.53;100.00;101524.13;5026938;28;20029;-72
2023/01/10 05:35:24;;;;;;;20.67;4.20;;;;;;;3.60;100.00;101528.38;5025832;28;20429;-72
2023/01/10 05:37:49;;;;;;;25.15;3.63;;;;;;;3.63;100.00;101522.00;5026705;28;20038;-71
2023/01/10 05:40:15;;;;;;;19.23;3.53;;;;;;;3.64;100.00;101523.75;5019267;28;20064;-72
2023/01/10 05:42:40;;;;;;;24.58;3.95;;;;;;;3.66;100.00;101519.22;5048661;28;20450;-73
2023/01/10 05:45:06;;;;;;;20.15;3.53;;;;;;;3.69;100.00;101525.38;5040674;28;20049;-72
2023/01/10 05:47:32;;;;;;;28.00;3.50;;;;;;;3.72;100.00;101532.47;5029430;28;20041;-72
2023/01/10 05:49:57;;;;;;;21.52;4.10;;;;;;;3.78;100.00;101541.22;5033824;28;20028;-74
2023/01/10 05:52:23;;;;;;;24.88;4.20;;;;;;;3.83;100.00;101549.16;5048241;28;20043;-72
2023/01/10 05:54:48;;;;;;;32.88;5.88;;;;;;;3.84;100.00;101548.22;5027752;28;20044;-72
2023/01/10 05:57:13;;;;;;;22.08;3.55;;;;;;;3.86;100.00;101549.03;5027264;28;20021;-71
2023/01/10 05:59:39;;;;;;;19.48;4.30;;;;;;;3.91;100.00;101554.25;5028339;28;20049;-72
2023/01/10 06:02:04;;;;;;;23.98;5.13;;;;;;;3.96;100.00;101560.38;5028219;28;20345;-72
2023/01/10 06:04:30;;;;;;;25.13;3.97;;;;;;;3.97;100.00;101562.16;5028301;28;20045;-72
2023/01/10 06:06:55;;;;;;;12.27;2.58;;;;;;;4.00;100.00;101564.72;5028340;28;20075;-72
2023/01/10 06:09:20;;;;;;;26.17;3.88;;;;;;;3.98;100.00;101570.16;5026565;28;20148;-72
2023/01/10 06:11:45;;;;;;;20.15;3.58;;;;;;;3.99;100.00;101560.28;5027467;28;20053;-72
2023/01/10 06:14:11;;;;;;;14.20;3.15;;;;;;;3.96;100.00;101550.47;5027761;28;20037;-73
2023/01/10 06:16:36;;;;;;;15.23;3.85;;;;;;;3.97;100.00;101556.75;5028375;28;20461;-73
2023/01/10 06:19:02;;;;;;;21.30;4.13;;;;;;;3.96;100.00;101553.16;5028554;28;20707;-72
2023/01/10 06:21:27;;;;;;;17.25;3.35;;;;;;;3.96;100.00;101569.31;5026059;28;20081;-72
2023/01/10 06:23:52;;;;;;;36.08;4.25;;;;;;;3.98;100.00;101570.16;5038518;28;20395;-72
2023/01/10 06:26:18;;;;;;;17.20;5.07;;;;;;;3.99;100.00;101560.28;5047028;28;20033;-73
2023/01/10 06:28:43;;;;;;;17.98;3.28;;;;;;;4.00;100.00;101567.41;5045929;28;20047;-72
2023/01/10 06:31:09;;;;;;;21.10;3.78;;;;;;;3.99;100.00;101571.03;5043665;28;20060;-72
2023/01/10 06:33:34;;;;;;;24.27;3.30;;;;;;;3.99;100.00;101579.13;5028470;28;20029;-72
2023/01/10 06:36:01;;;;;;;30.80;3.78;;;;;;;3.96;100.00;101577.38;5027130;28;20484;-72
2023/01/10 06:38:26;;;;;;;17.33;3.67;;;;;;;3.95;100.00;101569.38;5028185;28;20026;-72
2023/01/10 06:40:51;;;;;;;17.27;4.20;;;;;;;3.93;100.00;101574.81;5026349;28;20057;-72
2023/01/10 06:43:17;;;;;;;17.48;2.88;;;;;;;3.90;100.00;101577.59;5027626;28;20044;-72
2023/01/10 06:45:42;;;;;;;12.45;2.95;;;;;;;3.86;100.00;101580.44;5009745;28;20564;-72
2023/01/10 06:48:07;;;;;;;26.00;3.70;;;;;;;3.84;100.00;101583.19;5046412;28;20041;-71
2023/01/10 06:50:33;;;;;;;21.65;3.75;;;;;;;3.76;100.00;101583.44;5035112;28;20033;-72
2023/01/10 06:53:00;;;;;;;20.20;3.33;;;;;;;3.71;100.00;101592.59;5030720;28;20373;-71
2023/01/10 06:55:26;;;;;;;11.73;3.28;;;;;;;3.66;100.00;101597.25;5047447;28;20379;-72
2023/01/10 06:57:56;;;;;;;33.83;4.20;;;;;;;3.60;100.00;101595.63;5029393;28;20354;-72
2023/01/10 07:00:23;;;;;;;17.80;3.45;;;;;;;3.55;100.00;101603.84;5029337;28;20064;-73
2023/01/10 07:02:48;;;;;;;14.38;3.72;;;;;;;3.51;100.00;101610.25;5026275;28;20476;-71
2023/01/10 07:05:14;;;;;;;9.95;3.75;;;;;;;3.50;100.00;101597.75;5025576;28;20040;-72
2023/01/10 07:07:39;;;;;;;27.00;3.47;;;;;;;3.50;100.00;101613.00;5026181;28;20041;-73
2023/01/10 07:10:05;;;;;;;26.25;4.60;;;;;;;3.46;100.00;101625.66;5028140;28;20424;-72
2023/01/10 07:12:30;;;;;;;27.35;3.40;;;;;;;3.49;100.00;101635.41;5028020;28;20128;-72
2023/01/10 07:14:56;;;;;;;18.42;3.55;;;;;;;3.49;100.00;101632.72;5027454;28;20101;-72
2023/01/10 07:17:21;;;;;;;22.02;3.08;;;;;;;3.52;100.00;101640.72;5027097;28;20528;-72
2023/01/10 07:19:46;;;;;;;27.30;3.63;;;;;;;3.55;100.00;101633.44;5025809;28;20036;-72
2023/01/10 07:22:12;;;;;;;26.08;3.67;;;;;;;3.57;100.00;101641.47;5025189;28;20037;-71
2023/01/10 07:24:37;;;;;;;17.65;3.85;;;;;;;3.61;100.00;101653.88;5042247;28;20033;-71
2023/01/10 07:27:02;;;;;;;27.95;4.03;;;;;;;3.62;100.00;101654.78;5029662;28;20049;-72
2023/01/10 07:29:28;;;;;;;16.08;3.42;;;;;;;3.62;100.00;101644.88;5046737;28;20040;-72
2023/01/10 07:31:53;;;;;;;20.77;4.75;;;;;;;3.65;100.00;101665.44;5040238;28;20423;-72
2023/01/10 07:34:19;;;;;;;17.33;4.57;;;;;;;3.67;100.00;101666.28;5028275;28;20407;-73
2023/01/10 07:36:44;;;;;;;14.07;3.33;;;;;;;3.67;100.00;101672.53;5026583;28;20083;-72
2023/01/10 07:39:09;;;;;;;21.30;3.78;;;;;;;3.69;100.00;101676.06;5038106;28;20033;-71
2023/01/10 07:41:35;;;;;;;34.90;3.95;;;;;;;3.72;100.00;101685.84;5046009;28;20049;-72
2023/01/10 07:44:01;;;;;;;18.30;3.35;;;;;;;3.72;100.00;101677.75;5029124;28;20075;-73
2023/01/10 07:46:27;;;;;;;15.63;3.10;;;;;;;3.70;100.00;101682.34;5032322;28;20554;-72
2023/01/10 07:48:52;;;;;;;22.00;3.03;;;;;;;3.71;100.00;101687.66;5026685;28;20032;-72
2023/01/10 07:51:17;;;;;;;24.98;3.67;;;;;;;3.69;100.00;101689.53;5026307;28;20040;-71
2023/01/10 07:53:43;;;;;;;25.85;4.35;;;;;;;3.65;100.00;101704.00;5017814;28;20119;-72
2023/01/10 07:56:08;;;;;;;20.35;3.40;;;;;;;3.65;100.00;101695.03;5045473;28;20124;-71
2023/01/10 07:58:34;;;;;;;27.60;3.72;;;;;;;3.64;100.00;101704.03;5034789;28;20484;-72
2023/01/10 08:01:02;;;;;;;17.70;3.47;;;;;;;3.62;100.00;101704.06;5024231;28;20041;-73
2023/01/10 08:03:28;;;;;;;19.60;3.20;;;;;;;3.59;100.00;101690.75;5024877;28;20423;-72
2023/01/10 08:06:01;;;;;;;23.88;3.97;;;;;;;3.68;100.00;101694.94;5037850;28;20083;-72
2023/01/10 08:08:26;;;;;;;26.02;3.60;;;;;;;3.72;100.00;101704.69;5032594;28;20123;-72
2023/01/10 08:10:52;;;;;;;19.00;3.47;;;;;;;3.74;100.00;101694.78;5045242;28;20041;-72
2023/01/10 08:13:17;;;;;;;13.80;3.03;;;;;;;3.73;100.00;101693.88;5045222;28;20037;-71
2023/01/10 08:15:44;;;;;;;26.38;4.88;;;;;;;3.70;100.00;101693.97;5033609;28;20040;-72
2023/01/10 08:18:09;;;;;;;19.25;3.60;;;;;;;3.68;100.00;101681.47;5047006;28;20561;-71
2023/01/10 08:20:34;;;;;;;18.27;3.58;;;;;;;3.65;100.00;101695.03;5039349;28;20065;-73
2023/01/10 08:23:00;;;;;;;33.88;5.05;;;;;;;3.65;100.00;101697.72;5029108;28;20052;-71
2023/01/10 08:25:25;;;;;;;23.15;3.38;;;;;;;3.62;100.00;101696.00;5028829;28;20037;-72
2023/01/10 08:27:51;;;;;;;23.85;4.68;;;;;;;3.61;100.00;101699.63;5028536;28;20084;-73
2023/01/10 08:30:16;;;;;;;18.23;4.43;;;;;;;3.60;100.00;101697.88;5028710;28;20042;-72
2023/01/10 08:32:41;;;;;;;28.38;3.85;;;;;;;3.61;100.00;101705.00;5041173;28;20036;-72
2023/01/10 08:35:07;;;;;;;28.00;4.35;;;;;;;3.61;100.00;101706.81;5043723;28;20029;-71
2023/01/10 08:37:34;;;;;;;19.15;3.05;;;;;;;3.62;100.00;101711.28;5030177;28;20088;-73
2023/01/10 08:39:59;;;;;;;18.73;3.40;;;;;;;3.62;100.00;101701.38;5029062;28;20053;-72
2023/01/10 08:42:25;;;;;;;14.18;3.20;;;;;;;3.65;100.00;101700.44;5029982;28;20041;-71
2023/01/10 08:44:50;;;;;;;25.38;3.47;;;;;;;3.67;100.00;101695.88;5028309;28;20041;-72
2023/01/10 08:47:15;;;;;;;14.98;3.45;;;;;;;3.70;100.00;101702.03;5029843;28;20041;-71
2023/01/10 08:49:41;;;;;;;19.08;3.03;;;;;;;3.71;100.00;101690.34;5030012;28;20505;-74
2023/01/10 08:52:06;;;;;;;17.73;3.55;;;;;;;3.73;100.00;101698.34;5047858;28;20056;-72
2023/01/10 08:54:32;;;;;;;17.88;2.97;;;;;;;3.76;100.00;101693.78;5032355;28;20033;-71
2023/01/10 08:56:58;;;;;;;11.43;3.42;;;;;;;3.80;100.00;101691.88;5029666;28;20516;-72
2023/01/10 08:59:23;;;;;;;28.15;3.70;;;;;;;3.83;100.00;101698.06;5027505;28;20060;-72
2023/01/10 09:01:49;;;;;;;18.83;3.92;;;;;;;3.83;100.00;101681.03;5027954;28;20495;-72
2023/01/10 09:04:14;;;;;;;22.50;3.65;;;;;;;3.85;100.00;101689.91;5027620;28;20026;-73
2023/01/10 09:06:39;;;;;;;25.98;4.13;;;;;;;3.89;100.00;101685.34;5046808;28;20036;-72
2023/01/10 09:09:05;;;;;;;27.38;3.72;;;;;;;3.93;100.00;101687.88;5037082;28;20033;-72
2023/01/10 09:11:30;;;;;;;14.50;3.20;;;;;;;3.96;100.00;101678.81;5028635;28;20113;-73
2023/01/10 09:13:56;;;;;;;22.02;3.38;;;;;;;3.97;100.00;101677.91;5028803;28;20568;-71
2023/01/10 09:16:22;;;;;;;29.55;3.63;;;;;;;4.03;100.00;101680.38;5027858;28;20025;-71
2023/01/10 09:18:48;;;;;;;13.43;3.35;;;;;;;4.07;100.00;101682.94;5027105;28;20030;-72
2023/01/10 09:21:13;;;;;;;15.40;3.13;;;;;;;4.07;100.00;101680.25;5028559;28;20052;-72
2023/01/10 09:23:39;;;;;;;16.58;3.15;;;;;;;4.09;100.00;101672.97;5018930;28;20047;-72
2023/01/10 09:26:05;;;;;;;15.50;2.97;;;;;;;4.13;100.00;101680.97;5048007;28;20463;-73
2023/01/10 09:28:30;;;;;;;11.80;2.90;;;;;;;4.13;100.00;101689.06;5017727;28;20037;-72
2023/01/10 09:30:56;;;;;;;16.38;3.15;;;;;;;4.13;100.00;101673.78;5027195;28;20048;-72
2023/01/10 09:33:21;;;;;;;23.38;3.08;;;;;;;4.16;100.00;101678.19;5045219;28;20177;-72
2023/01/10 09:35:47;;;;;;;13.77;2.90;;;;;;;4.18;100.00;101679.00;5034976;28;20037;-72
2023/01/10 09:38:15;;;;;;;14.48;3.28;;;;;;;4.21;100.00;101687.88;5028735;28;20429;-72
2023/01/10 09:41:07;;;;;;;14.63;3.10;;;;;;;4.24;100.00;101682.41;5028505;28;20049;-72
2023/01/10 09:43:51;;;;;;;15.45;2.40;;;;;;;4.26;100.00;101672.44;5029112;28;20091;-73
2023/01/10 09:46:27;;;;;;;17.75;3.45;;;;;;;4.30;100.00;101682.19;5028323;28;20064;-73
2023/01/10 09:49:06;;;;;;;16.23;4.38;;;;;;;4.35;100.00;101680.22;5028537;28;20695;-72
2023/01/10 09:51:39;;;;;;;18.30;2.95;;;;;;;4.40;100.00;101677.38;5045500;28;20481;-71
2023/01/10 09:54:11;;;;;;;13.23;3.65;;;;;;;4.43;100.00;101679.97;5036578;28;20479;-72
2023/01/10 09:56:39;;;;;;;11.82;2.65;;;;;;;4.49;99.96;101678.88;5029325;28;20095;-72
2023/01/10 09:59:05;;;;;;;16.33;2.95;;;;;;;4.54;99.80;101676.91;5028576;28;20492;-71
2023/01/10 10:01:37;;;;;;;23.77;4.90;;;;;;;4.59;99.71;101674.94;5028809;28;20041;-72
2023/01/10 10:04:37;;;;;;;25.88;3.60;;;;;;;4.63;99.36;101678.41;5028532;28;20045;-72
2023/01/10 10:07:11;;;;;;;18.40;3.65;;;;;;;4.67;98.72;101683.66;5029347;28;20144;-72
2023/01/10 10:09:36;;;;;;;10.68;2.42;;;;;;;4.69;98.89;101679.06;5028199;28;20202;-72
2023/01/10 10:12:24;;;;;;;23.95;3.45;;;;;;;4.75;98.95;101684.25;5027156;28;20525;-72
2023/01/10 10:15:01;;;;;;;16.58;2.85;;;;;;;4.81;98.66;101678.66;5027048;28;20042;-72
2023/01/10 10:17:47;;;;;;;14.85;2.38;;;;;;;4.85;97.97;101663.25;5028149;28;20045;-72
2023/01/10 10:20:31;;;;;;;18.80;2.97;;;;;;;4.90;98.62;101660.41;5027952;28;20453;-72
2023/01/10 10:23:15;;;;;;;16.70;3.17;;;;;;;4.94;98.33;101656.63;5028075;28;20036;-72
2023/01/10 10:26:01;;;;;;;16.85;2.90;;;;;;;4.97;98.13;101654.72;5026544;28;20404;-73
2023/01/10 10:29:05;;;;;;;20.10;3.35;;;;;;;5.00;98.19;101656.44;5026520;28;20554;-72
2023/01/10 10:31:30;;;;;;;14.10;2.42;;;;;;;5.04;98.12;101655.38;5028190;28;20456;-72
2023/01/10 10:34:23;;;;;;;14.57;2.88;;;;;;;5.08;98.21;101657.00;5047396;28;20041;-71
2023/01/10 10:36:55;;;;;;;16.45;2.90;;;;;;;5.13;98.05;101652.34;5058362;28;20361;-72
2023/01/10 10:39:44;;;;;;;20.65;5.03;;;;;;;5.18;98.19;101642.28;5027634;28;20175;-74
2023/01/10 10:42:14;;;;;;;22.63;4.40;;;;;;;5.22;97.18;101635.84;5025738;28;20045;-72
2023/01/10 10:44:44;;;;;;;23.33;3.72;;;;;;;5.26;97.83;101629.34;5026055;28;20075;-72
2023/01/10 10:47:15;;;;;;;20.05;3.40;;;;;;;5.30;97.78;101619.34;5027732;28;20452;-72
2023/01/10 10:50:01;;;;;;;12.13;2.40;;;;;;;5.28;97.57;101603.22;5025847;28;20037;-72
2023/01/10 10:52:31;;;;;;;15.57;2.95;;;;;;;5.40;98.08;101614.47;5025557;28;20052;-72
2023/01/10 10:54:57;;;;;;;15.57;2.95;;;;;;;5.42;97.25;101604.50;5026275;28;20052;-73
2023/01/10 10:57:26;;;;;;;24.23;2.92;;;;;;;5.45;97.32;101610.63;5026919;28;20102;-72
2023/01/10 10:59:52;;;;;;;22.80;3.15;;;;;;;5.51;97.33;101610.44;5026808;28;20349;-72
2023/01/10 11:02:29;;;;;;;17.60;2.60;;;;;;;5.57;97.93;101604.78;5026999;28;20033;-71
2023/01/10 11:05:01;;;;;;;14.50;3.28;;;;;;;5.62;97.29;101601.91;5026747;28;20073;-71
2023/01/10 11:07:36;;;;;;;8.82;2.67;;;;;;;5.65;97.90;101593.69;5026642;28;20504;-72
2023/01/10 11:10:33;;;;;;;20.35;3.10;;;;;;;5.72;96.52;101592.47;5030277;28;20033;-72
2023/01/10 11:12:59;;;;;;;27.98;3.47;;;;;;;5.75;96.27;101594.19;5044970;28;20041;-72
2023/01/10 11:15:37;;;;;;;20.30;3.17;;;;;;;5.79;96.50;101579.63;5046416;28;20037;-72
2023/01/10 11:18:15;;;;;;;15.13;3.33;;;;;;;5.82;96.05;101576.78;5029401;28;20053;-72
2023/01/10 11:21:08;;;;;;;13.23;2.92;;;;;;;5.82;95.25;101574.09;5034908;28;20076;-72
2023/01/10 11:23:50;;;;;;;26.52;3.47;;;;;;;5.84;95.11;101578.50;5039485;28;20037;-72
2023/01/10 11:26:22;;;;;;;21.15;3.95;;;;;;;5.86;94.49;101573.91;5026937;28;20042;-71
2023/01/10 11:28:48;;;;;;;14.73;3.22;;;;;;;5.87;95.00;101572.97;5037712;28;20036;-72
2023/01/10 11:31:14;;;;;;;17.42;3.15;;;;;;;5.89;94.68;101572.91;5043348;28;20037;-72
2023/01/10 11:33:40;;;;;;;17.83;3.95;;;;;;;5.91;95.32;101570.13;5008390;28;20037;-72
2023/01/10 11:36:09;;;;;;;15.80;2.92;;;;;;;5.93;94.10;101566.47;5024812;28;20116;-74
2023/01/10 11:38:35;;;;;;;18.63;4.00;;;;;;;5.96;94.79;101568.16;5025901;28;20037;-72